sensor_id;sensor_type;location;lat;lon;timestamp;temperature;humidity
50570;DHT22;36525;49.398;7.614;2023-04-15T00:01:03;4.40;99.90
50570;DHT22;36525;49.398;7.614;2023-04-15T00:03:34;4.30;99.90
50570;DHT22;36525;49.398;7.614;2023-04-15T00:06:02;4.40;99.90
50570;DHT22;36525;49.398;7.614;2023-04-15T00:08:29;4.40;99.90
50570;DHT22;36525;49.398;7.614;2023-04-15T00:10:56;4.50;99.90
50570;DHT22;36525;49.398;7.614;2023-04-15T00:13:28;4.40;99.90
50570;DHT22;36525;49.398;7.614;2023-04-15T00:15:55;4.40;99.90
50570;DHT22;36525;49.398;7.614;2023-04-15T00:18:23;4.40;99.90
50570;DHT22;36525;49.398;7.614;2023-04-15T00:20:50;4.30;99.90
50570;DHT22;36525;49.398;7.614;2023-04-15T00:23:18;4.20;99.90
50570;DHT22;36525;49.398;7.614;2023-04-15T00:25:45;4.20;99.90
50570;DHT22;36525;49.398;7.614;2023-04-15T00:28:12;4.10;99.90
50570;DHT22;36525;49.398;7.614;2023-04-15T00:30:39;4.00;99.90
50570;DHT22;36525;49.398;7.614;2023-04-15T00:33:07;4.10;99.90
50570;DHT22;36525;49.398;7.614;2023-04-15T00:35:34;4.20;99.90
50570;DHT22;36525;49.398;7.614;2023-04-15T00:38:04;4.30;99.90
50570;DHT22;36525;49.398;7.614;2023-04-15T00:40:31;4.30;99.90
50570;DHT22;36525;49.398;7.614;2023-04-15T00:42:59;4.30;99.90
50570;DHT22;36525;49.398;7.614;2023-04-15T00:45:26;4.20;99.90
50570;DHT22;36525;49.398;7.614;2023-04-15T00:47:54;4.20;99.90
50570;DHT22;36525;49.398;7.614;2023-04-15T00:50:22;4.20;99.90
50570;DHT22;36525;49.398;7.614;2023-04-15T00:52:49;4.20;99.90
50570;DHT22;36525;49.398;7.614;2023-04-15T00:55:16;4.10;99.90
50570;DHT22;36525;49.398;7.614;2023-04-15T00:57:43;4.00;99.90
50570;DHT22;36525;49.398;7.614;2023-04-15T01:00:10;4.00;99.90
50570;DHT22;36525;49.398;7.614;2023-04-15T01:02:38;4.00;99.90
50570;DHT22;36525;49.398;7.614;2023-04-15T01:05:05;3.90;99.90
50570;DHT22;36525;49.398;7.614;2023-04-15T01:07:33;3.90;99.90
50570;DHT22;36525;49.398;7.614;2023-04-15T01:10:01;3.90;99.90
50570;DHT22;36525;49.398;7.614;2023-04-15T01:12:31;3.90;99.90
50570;DHT22;36525;49.398;7.614;2023-04-15T01:14:59;3.90;99.90
50570;DHT22;36525;49.398;7.614;2023-04-15T01:17:26;3.80;99.90
50570;DHT22;36525;49.398;7.614;2023-04-15T01:19:55;3.80;99.90
50570;DHT22;36525;49.398;7.614;2023-04-15T01:22:26;3.80;99.90
50570;DHT22;36525;49.398;7.614;2023-04-15T01:25:02;3.70;99.90
50570;DHT22;36525;49.398;7.614;2023-04-15T01:27:34;3.70;99.90
50570;DHT22;36525;49.398;7.614;2023-04-15T01:30:02;3.60;99.90
50570;DHT22;36525;49.398;7.614;2023-04-15T01:32:31;3.50;99.90
50570;DHT22;36525;49.398;7.614;2023-04-15T01:34:58;3.50;99.90
50570;DHT22;36525;49.398;7.614;2023-04-15T01:37:25;3.50;99.90
50570;DHT22;36525;49.398;7.614;2023-04-15T01:39:51;3.50;99.90
50570;DHT22;36525;49.398;7.614;2023-04-15T01:42:20;3.40;99.90
50570;DHT22;36525;49.398;7.614;2023-04-15T01:44:48;3.40;99.90
50570;DHT22;36525;49.398;7.614;2023-04-15T01:47:15;3.30;99.90
50570;DHT22;36525;49.398;7.614;2023-04-15T01:49:41;3.20;99.90
50570;DHT22;36525;49.398;7.614;2023-04-15T01:52:08;3.20;99.90
50570;DHT22;36525;49.398;7.614;2023-04-15T01:54:36;3.10;99.90
50570;DHT22;36525;49.398;7.614;2023-04-15T01:57:03;3.10;99.90
50570;DHT22;36525;49.398;7.614;2023-04-15T01:59:31;3.10;99.90
50570;DHT22;36525;49.398;7.614;2023-04-15T02:01:58;3.00;99.90
50570;DHT22;36525;49.398;7.614;2023-04-15T02:04:25;3.10;99.90
50570;DHT22;36525;49.398;7.614;2023-04-15T02:06:53;3.10;99.90
50570;DHT22;36525;49.398;7.614;2023-04-15T02:09:20;3.00;99.90
50570;DHT22;36525;49.398;7.614;2023-04-15T02:11:47;2.80;99.90
50570;DHT22;36525;49.398;7.614;2023-04-15T02:14:14;2.70;99.90
50570;DHT22;36525;49.398;7.614;2023-04-15T02:16:41;2.70;99.90
50570;DHT22;36525;49.398;7.614;2023-04-15T02:19:08;2.70;99.90
50570;DHT22;36525;49.398;7.614;2023-04-15T02:21:35;2.70;99.90
50570;DHT22;36525;49.398;7.614;2023-04-15T02:24:03;2.70;99.90
50570;DHT22;36525;49.398;7.614;2023-04-15T02:26:33;2.70;99.90
50570;DHT22;36525;49.398;7.614;2023-04-15T02:29:00;2.70;99.90
50570;DHT22;36525;49.398;7.614;2023-04-15T02:31:27;2.80;99.90
50570;DHT22;36525;49.398;7.614;2023-04-15T02:33:54;2.80;99.90
50570;DHT22;36525;49.398;7.614;2023-04-15T02:36:20;2.80;99.90
50570;DHT22;36525;49.398;7.614;2023-04-15T02:38:49;2.70;99.90
50570;DHT22;36525;49.398;7.614;2023-04-15T02:41:16;2.70;99.90
50570;DHT22;36525;49.398;7.614;2023-04-15T02:43:44;2.60;99.90
50570;DHT22;36525;49.398;7.614;2023-04-15T02:46:11;2.60;99.90
50570;DHT22;36525;49.398;7.614;2023-04-15T02:48:40;2.70;99.90
50570;DHT22;36525;49.398;7.614;2023-04-15T02:51:15;2.60;99.90
50570;DHT22;36525;49.398;7.614;2023-04-15T02:53:42;2.60;99.90
50570;DHT22;36525;49.398;7.614;2023-04-15T02:56:09;2.60;99.90
50570;DHT22;36525;49.398;7.614;2023-04-15T02:58:38;2.60;99.90
50570;DHT22;36525;49.398;7.614;2023-04-15T03:01:06;2.60;99.90
50570;DHT22;36525;49.398;7.614;2023-04-15T03:03:37;2.60;99.90
50570;DHT22;36525;49.398;7.614;2023-04-15T03:06:04;2.50;99.90
50570;DHT22;36525;49.398;7.614;2023-04-15T03:08:32;2.40;99.90
50570;DHT22;36525;49.398;7.614;2023-04-15T03:10:59;2.40;99.90
50570;DHT22;36525;49.398;7.614;2023-04-15T03:13:28;2.30;99.90
50570;DHT22;36525;49.398;7.614;2023-04-15T03:15:55;2.30;99.90
50570;DHT22;36525;49.398;7.614;2023-04-15T03:18:23;2.20;99.90
50570;DHT22;36525;49.398;7.614;2023-04-15T03:20:50;2.20;99.90
50570;DHT22;36525;49.398;7.614;2023-04-15T03:23:17;2.10;99.90
50570;DHT22;36525;49.398;7.614;2023-04-15T03:25:44;2.00;99.90
50570;DHT22;36525;49.398;7.614;2023-04-15T03:28:11;2.10;99.90
50570;DHT22;36525;49.398;7.614;2023-04-15T03:30:38;2.10;99.90
50570;DHT22;36525;49.398;7.614;2023-04-15T03:33:05;2.10;99.90
50570;DHT22;36525;49.398;7.614;2023-04-15T03:35:32;2.20;99.90
50570;DHT22;36525;49.398;7.614;2023-04-15T03:38:00;2.30;99.90
50570;DHT22;36525;49.398;7.614;2023-04-15T03:40:27;2.20;99.90
50570;DHT22;36525;49.398;7.614;2023-04-15T03:42:54;2.10;99.90
50570;DHT22;36525;49.398;7.614;2023-04-15T03:45:25;2.10;99.90
50570;DHT22;36525;49.398;7.614;2023-04-15T03:47:52;2.10;99.90
50570;DHT22;36525;49.398;7.614;2023-04-15T03:50:19;2.10;99.90
50570;DHT22;36525;49.398;7.614;2023-04-15T03:52:46;2.20;99.90
50570;DHT22;36525;49.398;7.614;2023-04-15T03:55:16;2.20;99.90
50570;DHT22;36525;49.398;7.614;2023-04-15T03:57:43;2.20;99.90
50570;DHT22;36525;49.398;7.614;2023-04-15T04:00:10;2.10;99.90
50570;DHT22;36525;49.398;7.614;2023-04-15T04:02:37;2.10;99.90
50570;DHT22;36525;49.398;7.614;2023-04-15T04:05:04;2.20;99.90
50570;DHT22;36525;49.398;7.614;2023-04-15T04:07:32;2.20;99.90
50570;DHT22;36525;49.398;7.614;2023-04-15T04:09:59;2.20;99.90
50570;DHT22;36525;49.398;7.614;2023-04-15T04:12:26;2.10;99.90
50570;DHT22;36525;49.398;7.614;2023-04-15T04:14:53;2.10;99.90
50570;DHT22;36525;49.398;7.614;2023-04-15T04:17:20;2.20;99.90
50570;DHT22;36525;49.398;7.614;2023-04-15T04:19:47;2.20;99.90
50570;DHT22;36525;49.398;7.614;2023-04-15T04:22:14;2.10;99.90
50570;DHT22;36525;49.398;7.614;2023-04-15T04:24:41;2.10;99.90
50570;DHT22;36525;49.398;7.614;2023-04-15T04:27:08;2.20;99.90
50570;DHT22;36525;49.398;7.614;2023-04-15T04:29:35;2.10;99.90
50570;DHT22;36525;49.398;7.614;2023-04-15T04:32:02;2.10;99.90
50570;DHT22;36525;49.398;7.614;2023-04-15T04:34:29;2.10;99.90
50570;DHT22;36525;49.398;7.614;2023-04-15T04:36:56;2.10;99.90
50570;DHT22;36525;49.398;7.614;2023-04-15T04:39:23;2.00;99.90
50570;DHT22;36525;49.398;7.614;2023-04-15T04:41:50;2.00;99.90
50570;DHT22;36525;49.398;7.614;2023-04-15T04:44:17;2.00;99.90
50570;DHT22;36525;49.398;7.614;2023-04-15T04:46:44;2.00;99.90
50570;DHT22;36525;49.398;7.614;2023-04-15T04:49:11;2.00;99.90
50570;DHT22;36525;49.398;7.614;2023-04-15T04:51:40;2.00;99.90
50570;DHT22;36525;49.398;7.614;2023-04-15T04:54:07;1.90;99.90
50570;DHT22;36525;49.398;7.614;2023-04-15T04:56:34;1.90;99.90
50570;DHT22;36525;49.398;7.614;2023-04-15T04:59:01;1.90;99.90
50570;DHT22;36525;49.398;7.614;2023-04-15T05:01:28;1.90;99.90
50570;DHT22;36525;49.398;7.614;2023-04-15T05:03:55;1.90;99.90
50570;DHT22;36525;49.398;7.614;2023-04-15T05:06:23;1.90;99.90
50570;DHT22;36525;49.398;7.614;2023-04-15T05:08:50;1.90;99.90
50570;DHT22;36525;49.398;7.614;2023-04-15T05:11:17;1.90;99.90
50570;DHT22;36525;49.398;7.614;2023-04-15T05:13:44;2.00;99.90
50570;DHT22;36525;49.398;7.614;2023-04-15T05:16:10;2.10;99.90
50570;DHT22;36525;49.398;7.614;2023-04-15T05:18:37;2.10;99.90
50570;DHT22;36525;49.398;7.614;2023-04-15T05:21:04;2.10;99.90
50570;DHT22;36525;49.398;7.614;2023-04-15T05:23:32;2.20;99.90
50570;DHT22;36525;49.398;7.614;2023-04-15T05:25:59;2.30;99.90
50570;DHT22;36525;49.398;7.614;2023-04-15T05:28:26;2.40;99.90
50570;DHT22;36525;49.398;7.614;2023-04-15T05:30:53;2.40;99.90
50570;DHT22;36525;49.398;7.614;2023-04-15T05:33:21;2.50;99.90
50570;DHT22;36525;49.398;7.614;2023-04-15T05:35:48;2.50;99.90
50570;DHT22;36525;49.398;7.614;2023-04-15T05:38:16;2.60;99.90
50570;DHT22;36525;49.398;7.614;2023-04-15T05:40:43;2.70;99.90
50570;DHT22;36525;49.398;7.614;2023-04-15T05:43:10;2.70;99.90
50570;DHT22;36525;49.398;7.614;2023-04-15T05:45:37;2.80;99.90
50570;DHT22;36525;49.398;7.614;2023-04-15T05:48:04;2.90;99.90
50570;DHT22;36525;49.398;7.614;2023-04-15T05:50:31;2.90;99.90
50570;DHT22;36525;49.398;7.614;2023-04-15T05:52:58;3.00;99.90
50570;DHT22;36525;49.398;7.614;2023-04-15T05:55:26;3.00;99.90
50570;DHT22;36525;49.398;7.614;2023-04-15T05:57:53;3.00;99.90
50570;DHT22;36525;49.398;7.614;2023-04-15T06:00:20;3.00;99.90
50570;DHT22;36525;49.398;7.614;2023-04-15T06:02:46;3.10;99.90
50570;DHT22;36525;49.398;7.614;2023-04-15T06:05:14;3.20;99.90
50570;DHT22;36525;49.398;7.614;2023-04-15T06:07:41;3.30;99.90
50570;DHT22;36525;49.398;7.614;2023-04-15T06:10:11;3.60;99.90
50570;DHT22;36525;49.398;7.614;2023-04-15T06:12:38;3.70;99.90
50570;DHT22;36525;49.398;7.614;2023-04-15T06:15:05;3.80;99.90
50570;DHT22;36525;49.398;7.614;2023-04-15T06:17:32;4.00;99.90
50570;DHT22;36525;49.398;7.614;2023-04-15T06:19:59;4.20;99.90
50570;DHT22;36525;49.398;7.614;2023-04-15T06:22:26;4.40;99.90
50570;DHT22;36525;49.398;7.614;2023-04-15T06:24:54;4.60;99.90
50570;DHT22;36525;49.398;7.614;2023-04-15T06:27:21;4.70;99.90
50570;DHT22;36525;49.398;7.614;2023-04-15T06:29:48;4.90;99.90
50570;DHT22;36525;49.398;7.614;2023-04-15T06:32:15;5.20;99.90
50570;DHT22;36525;49.398;7.614;2023-04-15T06:34:42;5.30;99.90
50570;DHT22;36525;49.398;7.614;2023-04-15T06:37:09;5.50;99.90
50570;DHT22;36525;49.398;7.614;2023-04-15T06:39:41;5.70;99.90
50570;DHT22;36525;49.398;7.614;2023-04-15T06:42:10;5.90;99.90
50570;DHT22;36525;49.398;7.614;2023-04-15T06:44:37;6.00;99.90
50570;DHT22;36525;49.398;7.614;2023-04-15T06:47:04;6.20;99.90
50570;DHT22;36525;49.398;7.614;2023-04-15T06:49:31;6.40;99.90
50570;DHT22;36525;49.398;7.614;2023-04-15T06:51:59;6.50;99.90
50570;DHT22;36525;49.398;7.614;2023-04-15T06:54:27;6.70;99.90
50570;DHT22;36525;49.398;7.614;2023-04-15T06:56:54;6.90;99.90
50570;DHT22;36525;49.398;7.614;2023-04-15T06:59:21;7.00;99.90
50570;DHT22;36525;49.398;7.614;2023-04-15T07:01:48;7.20;99.90
50570;DHT22;36525;49.398;7.614;2023-04-15T07:04:15;7.40;99.90
50570;DHT22;36525;49.398;7.614;2023-04-15T07:06:42;7.60;99.90
50570;DHT22;36525;49.398;7.614;2023-04-15T07:09:10;7.70;99.90
50570;DHT22;36525;49.398;7.614;2023-04-15T07:11:37;7.90;99.90
50570;DHT22;36525;49.398;7.614;2023-04-15T07:14:04;8.20;99.90
50570;DHT22;36525;49.398;7.614;2023-04-15T07:16:31;8.40;99.90
50570;DHT22;36525;49.398;7.614;2023-04-15T07:18:58;8.60;99.90
50570;DHT22;36525;49.398;7.614;2023-04-15T07:21:25;8.80;99.90
50570;DHT22;36525;49.398;7.614;2023-04-15T07:23:53;9.00;99.90
50570;DHT22;36525;49.398;7.614;2023-04-15T07:26:20;9.40;99.90
50570;DHT22;36525;49.398;7.614;2023-04-15T07:28:48;9.70;99.90
50570;DHT22;36525;49.398;7.614;2023-04-15T07:31:15;10.00;99.90
50570;DHT22;36525;49.398;7.614;2023-04-15T07:33:44;10.20;99.90
50570;DHT22;36525;49.398;7.614;2023-04-15T07:36:11;10.50;99.90
50570;DHT22;36525;49.398;7.614;2023-04-15T07:38:38;10.60;99.90
50570;DHT22;36525;49.398;7.614;2023-04-15T07:41:07;10.60;99.90
50570;DHT22;36525;49.398;7.614;2023-04-15T07:43:35;10.80;99.90
50570;DHT22;36525;49.398;7.614;2023-04-15T07:46:05;10.90;99.90
50570;DHT22;36525;49.398;7.614;2023-04-15T07:51:02;10.90;99.90
50570;DHT22;36525;49.398;7.614;2023-04-15T07:53:29;10.80;99.90
50570;DHT22;36525;49.398;7.614;2023-04-15T07:55:56;10.80;99.90
50570;DHT22;36525;49.398;7.614;2023-04-15T07:58:24;10.80;99.90
50570;DHT22;36525;49.398;7.614;2023-04-15T08:00:51;10.90;99.90
50570;DHT22;36525;49.398;7.614;2023-04-15T08:03:18;11.00;99.90
50570;DHT22;36525;49.398;7.614;2023-04-15T08:08:14;11.20;99.90
50570;DHT22;36525;49.398;7.614;2023-04-15T08:10:41;11.30;99.90
50570;DHT22;36525;49.398;7.614;2023-04-15T08:13:07;11.40;99.90
50570;DHT22;36525;49.398;7.614;2023-04-15T08:15:34;11.50;99.90
50570;DHT22;36525;49.398;7.614;2023-04-15T08:18:02;11.70;99.90
50570;DHT22;36525;49.398;7.614;2023-04-15T08:20:29;12.00;99.90
50570;DHT22;36525;49.398;7.614;2023-04-15T08:22:55;12.40;99.90
50570;DHT22;36525;49.398;7.614;2023-04-15T08:25:22;12.80;99.90
50570;DHT22;36525;49.398;7.614;2023-04-15T08:27:49;13.00;99.90
50570;DHT22;36525;49.398;7.614;2023-04-15T08:30:17;13.20;99.90
50570;DHT22;36525;49.398;7.614;2023-04-15T08:32:45;13.20;99.90
50570;DHT22;36525;49.398;7.614;2023-04-15T08:35:16;13.40;99.90
50570;DHT22;36525;49.398;7.614;2023-04-15T08:37:43;13.40;99.90
50570;DHT22;36525;49.398;7.614;2023-04-15T08:40:10;13.10;99.90
50570;DHT22;36525;49.398;7.614;2023-04-15T08:42:43;13.30;99.90
50570;DHT22;36525;49.398;7.614;2023-04-15T08:45:11;13.40;99.90
50570;DHT22;36525;49.398;7.614;2023-04-15T08:47:38;13.80;99.90
50570;DHT22;36525;49.398;7.614;2023-04-15T08:50:08;14.00;99.90
50570;DHT22;36525;49.398;7.614;2023-04-15T08:52:36;14.40;99.90
50570;DHT22;36525;49.398;7.614;2023-04-15T08:55:04;15.00;99.90
50570;DHT22;36525;49.398;7.614;2023-04-15T08:57:34;15.20;99.90
50570;DHT22;36525;49.398;7.614;2023-04-15T09:00:02;15.20;99.90
50570;DHT22;36525;49.398;7.614;2023-04-15T09:02:31;15.10;99.90
50570;DHT22;36525;49.398;7.614;2023-04-15T09:04:58;15.30;99.90
50570;DHT22;36525;49.398;7.614;2023-04-15T09:07:25;15.40;99.90
50570;DHT22;36525;49.398;7.614;2023-04-15T09:09:52;15.50;99.00
50570;DHT22;36525;49.398;7.614;2023-04-15T09:12:19;15.80;99.10
50570;DHT22;36525;49.398;7.614;2023-04-15T09:14:47;16.10;98.40
50570;DHT22;36525;49.398;7.614;2023-04-15T09:17:18;15.80;98.70
50570;DHT22;36525;49.398;7.614;2023-04-15T09:19:47;15.50;98.80
50570;DHT22;36525;49.398;7.614;2023-04-15T09:22:14;15.40;99.00
50570;DHT22;36525;49.398;7.614;2023-04-15T09:24:41;15.20;98.90
50570;DHT22;36525;49.398;7.614;2023-04-15T09:27:09;15.30;98.70
50570;DHT22;36525;49.398;7.614;2023-04-15T09:29:37;15.30;98.00
50570;DHT22;36525;49.398;7.614;2023-04-15T09:32:14;15.50;98.50
50570;DHT22;36525;49.398;7.614;2023-04-15T09:34:42;15.80;97.80
50570;DHT22;36525;49.398;7.614;2023-04-15T09:37:09;15.80;97.60
50570;DHT22;36525;49.398;7.614;2023-04-15T09:39:49;15.60;96.90
50570;DHT22;36525;49.398;7.614;2023-04-15T09:42:17;15.80;96.60
50570;DHT22;36525;49.398;7.614;2023-04-15T09:44:52;15.90;97.00
50570;DHT22;36525;49.398;7.614;2023-04-15T09:47:31;16.30;98.60
50570;DHT22;36525;49.398;7.614;2023-04-15T09:50:00;16.40;95.80
50570;DHT22;36525;49.398;7.614;2023-04-15T09:52:28;16.40;97.00
50570;DHT22;36525;49.398;7.614;2023-04-15T09:54:59;16.30;96.00
50570;DHT22;36525;49.398;7.614;2023-04-15T09:57:34;16.40;96.90
50570;DHT22;36525;49.398;7.614;2023-04-15T10:00:06;16.50;96.10
50570;DHT22;36525;49.398;7.614;2023-04-15T10:02:40;16.10;94.60
50570;DHT22;36525;49.398;7.614;2023-04-15T10:05:11;16.50;95.30
50570;DHT22;36525;49.398;7.614;2023-04-15T10:07:41;16.70;93.00
50570;DHT22;36525;49.398;7.614;2023-04-15T10:10:09;16.70;92.40
50570;DHT22;36525;49.398;7.614;2023-04-15T10:12:39;16.30;92.20
50570;DHT22;36525;49.398;7.614;2023-04-15T10:15:13;16.10;92.40
50570;DHT22;36525;49.398;7.614;2023-04-15T10:20:12;15.90;91.20
50570;DHT22;36525;49.398;7.614;2023-04-15T10:22:41;15.70;90.90
50570;DHT22;36525;49.398;7.614;2023-04-15T10:25:10;15.30;91.00
50570;DHT22;36525;49.398;7.614;2023-04-15T10:27:39;15.30;92.00
50570;DHT22;36525;49.398;7.614;2023-04-15T10:30:08;15.50;92.10
50570;DHT22;36525;49.398;7.614;2023-04-15T10:32:35;15.10;91.20
50570;DHT22;36525;49.398;7.614;2023-04-15T10:35:04;15.00;91.60
50570;DHT22;36525;49.398;7.614;2023-04-15T10:37:34;15.10;91.70
50570;DHT22;36525;49.398;7.614;2023-04-15T10:40:31;15.30;92.60
50570;DHT22;36525;49.398;7.614;2023-04-15T10:43:02;15.30;93.20
50570;DHT22;36525;49.398;7.614;2023-04-15T10:45:34;15.20;92.10
50570;DHT22;36525;49.398;7.614;2023-04-15T10:48:05;15.10;92.10
50570;DHT22;36525;49.398;7.614;2023-04-15T10:50:33;15.00;92.50
50570;DHT22;36525;49.398;7.614;2023-04-15T10:53:03;14.70;91.80
50570;DHT22;36525;49.398;7.614;2023-04-15T10:55:33;14.70;92.40
50570;DHT22;36525;49.398;7.614;2023-04-15T10:58:01;14.90;92.30
50570;DHT22;36525;49.398;7.614;2023-04-15T11:00:30;15.00;93.30
50570;DHT22;36525;49.398;7.614;2023-04-15T11:08:12;15.40;92.50
50570;DHT22;36525;49.398;7.614;2023-04-15T11:20:39;16.70;91.80
50570;DHT22;36525;49.398;7.614;2023-04-15T11:23:08;17.20;92.00
50570;DHT22;36525;49.398;7.614;2023-04-15T11:25:42;17.00;90.90
50570;DHT22;36525;49.398;7.614;2023-04-15T11:28:11;16.80;91.90
50570;DHT22;36525;49.398;7.614;2023-04-15T11:30:39;16.70;91.30
50570;DHT22;36525;49.398;7.614;2023-04-15T11:33:08;16.50;91.80
50570;DHT22;36525;49.398;7.614;2023-04-15T11:35:40;16.30;91.90
50570;DHT22;36525;49.398;7.614;2023-04-15T11:38:09;16.10;91.00
50570;DHT22;36525;49.398;7.614;2023-04-15T11:40:38;15.90;91.40
50570;DHT22;36525;49.398;7.614;2023-04-15T11:45:33;16.00;93.30
50570;DHT22;36525;49.398;7.614;2023-04-15T11:48:09;16.00;92.80
50570;DHT22;36525;49.398;7.614;2023-04-15T11:50:37;15.60;92.40
50570;DHT22;36525;49.398;7.614;2023-04-15T11:53:12;15.40;93.30
50570;DHT22;36525;49.398;7.614;2023-04-15T11:55:48;15.10;93.70
50570;DHT22;36525;49.398;7.614;2023-04-15T11:58:24;14.90;93.10
50570;DHT22;36525;49.398;7.614;2023-04-15T12:00:53;14.80;91.80
50570;DHT22;36525;49.398;7.614;2023-04-15T12:03:46;14.80;92.20
50570;DHT22;36525;49.398;7.614;2023-04-15T12:13:58;15.50;87.50
50570;DHT22;36525;49.398;7.614;2023-04-15T12:16:30;15.60;86.10
50570;DHT22;36525;49.398;7.614;2023-04-15T12:18:58;15.60;80.90
50570;DHT22;36525;49.398;7.614;2023-04-15T12:21:31;15.60;83.00
50570;DHT22;36525;49.398;7.614;2023-04-15T12:24:04;15.80;80.20
50570;DHT22;36525;49.398;7.614;2023-04-15T12:26:45;15.50;82.80
50570;DHT22;36525;49.398;7.614;2023-04-15T12:29:15;15.50;82.40
50570;DHT22;36525;49.398;7.614;2023-04-15T12:31:54;15.30;81.80
50570;DHT22;36525;49.398;7.614;2023-04-15T12:34:39;15.30;81.10
50570;DHT22;36525;49.398;7.614;2023-04-15T12:37:10;15.50;83.10
50570;DHT22;36525;49.398;7.614;2023-04-15T12:39:41;16.00;83.70
50570;DHT22;36525;49.398;7.614;2023-04-15T12:42:10;16.30;82.70
50570;DHT22;36525;49.398;7.614;2023-04-15T12:44:38;16.40;83.00
50570;DHT22;36525;49.398;7.614;2023-04-15T12:47:06;16.50;84.50
50570;DHT22;36525;49.398;7.614;2023-04-15T12:49:34;16.50;83.80
50570;DHT22;36525;49.398;7.614;2023-04-15T12:52:02;16.20;84.20
50570;DHT22;36525;49.398;7.614;2023-04-15T12:54:30;16.20;86.00
50570;DHT22;36525;49.398;7.614;2023-04-15T12:56:58;16.10;84.60
50570;DHT22;36525;49.398;7.614;2023-04-15T12:59:25;16.40;83.60
50570;DHT22;36525;49.398;7.614;2023-04-15T13:01:54;16.80;85.50
50570;DHT22;36525;49.398;7.614;2023-04-15T13:04:21;16.90;85.10
50570;DHT22;36525;49.398;7.614;2023-04-15T13:06:49;16.60;85.40
50570;DHT22;36525;49.398;7.614;2023-04-15T13:09:16;16.40;84.80
50570;DHT22;36525;49.398;7.614;2023-04-15T13:11:46;16.20;85.00
50570;DHT22;36525;49.398;7.614;2023-04-15T13:14:13;16.00;85.20
50570;DHT22;36525;49.398;7.614;2023-04-15T13:16:40;16.00;85.40
50570;DHT22;36525;49.398;7.614;2023-04-15T13:19:07;15.90;85.10
50570;DHT22;36525;49.398;7.614;2023-04-15T13:21:34;15.90;84.80
50570;DHT22;36525;49.398;7.614;2023-04-15T13:24:02;15.90;84.90
50570;DHT22;36525;49.398;7.614;2023-04-15T13:26:30;16.20;86.30
50570;DHT22;36525;49.398;7.614;2023-04-15T13:28:58;16.70;84.10
50570;DHT22;36525;49.398;7.614;2023-04-15T13:31:25;17.00;84.00
50570;DHT22;36525;49.398;7.614;2023-04-15T13:33:52;17.00;82.20
50570;DHT22;36525;49.398;7.614;2023-04-15T13:36:20;17.20;81.70
50570;DHT22;36525;49.398;7.614;2023-04-15T13:38:47;17.20;80.70
50570;DHT22;36525;49.398;7.614;2023-04-15T13:41:17;17.20;79.70
50570;DHT22;36525;49.398;7.614;2023-04-15T13:43:44;17.20;79.00
50570;DHT22;36525;49.398;7.614;2023-04-15T13:46:11;17.00;78.00
50570;DHT22;36525;49.398;7.614;2023-04-15T13:52:22;16.70;79.70
50570;DHT22;36525;49.398;7.614;2023-04-15T13:54:49;16.10;80.10
50570;DHT22;36525;49.398;7.614;2023-04-15T13:57:36;15.50;81.60
50570;DHT22;36525;49.398;7.614;2023-04-15T14:00:03;15.40;83.60
50570;DHT22;36525;49.398;7.614;2023-04-15T14:02:31;15.30;83.20
50570;DHT22;36525;49.398;7.614;2023-04-15T14:04:58;15.10;85.00
50570;DHT22;36525;49.398;7.614;2023-04-15T14:07:26;15.30;84.80
50570;DHT22;36525;49.398;7.614;2023-04-15T14:09:55;15.10;87.10
50570;DHT22;36525;49.398;7.614;2023-04-15T14:12:22;14.90;87.60
50570;DHT22;36525;49.398;7.614;2023-04-15T14:14:49;15.00;89.30
50570;DHT22;36525;49.398;7.614;2023-04-15T14:17:16;15.20;88.40
50570;DHT22;36525;49.398;7.614;2023-04-15T14:19:43;15.10;88.20
50570;DHT22;36525;49.398;7.614;2023-04-15T14:22:10;14.70;87.70
50570;DHT22;36525;49.398;7.614;2023-04-15T14:27:05;14.40;87.20
50570;DHT22;36525;49.398;7.614;2023-04-15T14:29:34;14.40;89.50
50570;DHT22;36525;49.398;7.614;2023-04-15T14:32:01;14.40;88.40
50570;DHT22;36525;49.398;7.614;2023-04-15T14:34:38;14.30;88.70
50570;DHT22;36525;49.398;7.614;2023-04-15T14:37:05;14.30;89.60
50570;DHT22;36525;49.398;7.614;2023-04-15T14:39:33;14.40;89.20
50570;DHT22;36525;49.398;7.614;2023-04-15T14:42:00;14.30;90.40
50570;DHT22;36525;49.398;7.614;2023-04-15T14:44:27;14.30;90.00
50570;DHT22;36525;49.398;7.614;2023-04-15T14:46:54;14.30;90.10
50570;DHT22;36525;49.398;7.614;2023-04-15T14:49:21;14.30;90.40
50570;DHT22;36525;49.398;7.614;2023-04-15T14:51:49;14.30;91.00
50570;DHT22;36525;49.398;7.614;2023-04-15T14:54:16;14.30;90.70
50570;DHT22;36525;49.398;7.614;2023-04-15T14:56:43;14.40;90.60
50570;DHT22;36525;49.398;7.614;2023-04-15T14:59:10;14.40;90.20
50570;DHT22;36525;49.398;7.614;2023-04-15T15:01:37;14.20;90.30
50570;DHT22;36525;49.398;7.614;2023-04-15T15:04:04;14.20;90.90
50570;DHT22;36525;49.398;7.614;2023-04-15T15:06:31;14.20;90.90
50570;DHT22;36525;49.398;7.614;2023-04-15T15:11:27;13.90;91.20
50570;DHT22;36525;49.398;7.614;2023-04-15T15:13:55;13.80;91.60
50570;DHT22;36525;49.398;7.614;2023-04-15T15:16:25;13.60;92.20
50570;DHT22;36525;49.398;7.614;2023-04-15T15:18:54;13.60;92.10
50570;DHT22;36525;49.398;7.614;2023-04-15T15:21:21;13.50;92.60
50570;DHT22;36525;49.398;7.614;2023-04-15T15:28:44;13.20;93.60
50570;DHT22;36525;49.398;7.614;2023-04-15T15:31:11;13.10;94.30
50570;DHT22;36525;49.398;7.614;2023-04-15T15:33:40;13.10;94.00
50570;DHT22;36525;49.398;7.614;2023-04-15T15:36:07;13.00;94.30
50570;DHT22;36525;49.398;7.614;2023-04-15T15:38:35;12.90;94.70
50570;DHT22;36525;49.398;7.614;2023-04-15T15:41:03;12.80;95.50
50570;DHT22;36525;49.398;7.614;2023-04-15T15:43:30;12.70;96.10
50570;DHT22;36525;49.398;7.614;2023-04-15T15:45:57;12.60;97.00
50570;DHT22;36525;49.398;7.614;2023-04-15T15:48:24;12.40;97.70
50570;DHT22;36525;49.398;7.614;2023-04-15T15:50:51;12.30;98.10
50570;DHT22;36525;49.398;7.614;2023-04-15T15:53:19;12.30;98.20
50570;DHT22;36525;49.398;7.614;2023-04-15T15:55:47;12.20;97.80
50570;DHT22;36525;49.398;7.614;2023-04-15T15:58:14;12.20;97.60
50570;DHT22;36525;49.398;7.614;2023-04-15T16:00:41;12.00;97.60
50570;DHT22;36525;49.398;7.614;2023-04-15T16:03:08;11.90;97.50
50570;DHT22;36525;49.398;7.614;2023-04-15T16:05:37;12.00;98.20
50570;DHT22;36525;49.398;7.614;2023-04-15T16:08:04;11.90;97.90
50570;DHT22;36525;49.398;7.614;2023-04-15T16:10:32;11.80;98.10
50570;DHT22;36525;49.398;7.614;2023-04-15T16:12:58;11.80;98.20
50570;DHT22;36525;49.398;7.614;2023-04-15T16:15:26;11.70;98.40
50570;DHT22;36525;49.398;7.614;2023-04-15T16:17:53;11.70;98.90
50570;DHT22;36525;49.398;7.614;2023-04-15T16:20:20;11.60;99.00
50570;DHT22;36525;49.398;7.614;2023-04-15T16:22:47;11.50;99.60
50570;DHT22;36525;49.398;7.614;2023-04-15T16:27:41;11.40;99.90
50570;DHT22;36525;49.398;7.614;2023-04-15T16:30:26;11.30;99.90
50570;DHT22;36525;49.398;7.614;2023-04-15T16:32:55;11.20;99.90